YM Utopia — A8OR5 — position and weather

sailwx.info

Track history (hours):
 
Tides and Currents Weather Stations Pressure Air Temp Water Temp Dewpoint Dewpoint Depression Visibility Wind Speed Wind Dir Waves Ship Positions

YM Utopia

Last reported at 2017-Nov-11 22:15 UTC. Time now 2017-Nov-24 04:05 UTC.
Position N 01°13' E 103°33'.
Warning: this ship's position is 12 days out of date.

Length 333 m; draft 13.9 m.

Type: Ship (hazmat cat A). MMSI: 636013690.

Date/timePositionNaut miles runAvg speedWind from/ knotsBaromVisibWave heightAir tempDewpointWater temp
2017-Nov-11 22:15N 01°13' E 103°33'417.5
2017-Nov-11 22:01N 01°12' E 103°37'510.4
2017-Nov-11 21:30N 01°14' E 103°42'5 9.7
2017-Nov-11 21:01N 01°17' E 103°45'1 1.7
2017-Nov-11 20:30N 01°17' E 103°46'0 0.0
2017-Nov-11 19:57N 01°17' E 103°46'0 0.0
2017-Nov-11 19:27N 01°17' E 103°46'0 0.0
2017-Nov-11 18:57N 01°17' E 103°46'0 0.0
2017-Nov-11 18:30N 01°17' E 103°46'0 0.0
2017-Nov-11 17:57N 01°17' E 103°46'0 0.0
2017-Nov-11 17:30N 01°17' E 103°46'0 0.0
2017-Nov-11 17:00N 01°17' E 103°46'0 0.0
2017-Nov-11 16:30N 01°17' E 103°46'0 0.0
2017-Nov-11 16:00N 01°17' E 103°46'0 0.0
2017-Nov-11 15:30N 01°17' E 103°46'0 0.0
2017-Nov-11 14:57N 01°17' E 103°46'0 0.0
2017-Nov-11 14:30N 01°17' E 103°46'0 0.0
2017-Nov-11 14:00N 01°17' E 103°46'0 0.0
2017-Nov-11 13:30N 01°17' E 103°46'0 0.0
2017-Nov-11 13:01N 01°17' E 103°46'0 0.0
2017-Nov-11 12:30N 01°17' E 103°46'0 0.0
2017-Nov-11 12:01N 01°17' E 103°46'0 0.0
2017-Nov-11 11:30N 01°17' E 103°46'0 0.0
2017-Nov-11 10:57N 01°17' E 103°46'0 0.0
2017-Nov-11 10:30N 01°17' E 103°46'0 0.0
2017-Nov-11 09:57N 01°17' E 103°46'0 0.0
2017-Nov-11 09:30N 01°17' E 103°46'0 0.0
2017-Nov-11 08:57N 01°17' E 103°46'0 0.0
2017-Nov-11 08:27N 01°17' E 103°46'0 0.0
2017-Nov-11 07:54N 01°17' E 103°46'0 0.0
2017-Nov-11 07:30N 01°17' E 103°46'0 0.0
2017-Nov-11 07:00N 01°17' E 103°46'0 0.0
2017-Nov-11 06:30N 01°17' E 103°46'0 0.0
2017-Nov-11 06:00N 01°17' E 103°46'0 0.0
2017-Nov-11 05:27N 01°17' E 103°46'0 0.0
2017-Nov-11 05:00N 01°17' E 103°46'0 0.0
2017-Nov-11 04:30N 01°17' E 103°46'0 0.0
2017-Nov-11 04:00N 01°17' E 103°46'0 0.0
2017-Nov-11 03:30N 01°17' E 103°46'0 0.0
2017-Nov-11 03:00N 01°17' E 103°46'0 0.0
2017-Nov-11 02:30N 01°17' E 103°46'0 0.0
2017-Nov-11 01:57N 01°17' E 103°46'0 0.0
2017-Nov-11 01:27N 01°17' E 103°46'0 0.0
2017-Nov-11 01:00N 01°17' E 103°46'0 0.0
2017-Nov-11 00:30N 01°17' E 103°46'0 0.4
2017-Nov-11 00:00N 01°17' E 103°46'1 2.2
2017-Nov-10 23:30N 01°17' E 103°45'3 6.1
2017-Nov-10 23:00N 01°15' E 103°47'4 8.9
2017-Nov-10 22:30N 01°12' E 103°51'4 7.7
2017-Nov-10 22:00N 01°13' E 103°54'4 7.6
2017-Nov-10 21:30N 01°15' E 103°58'3 5.1
2017-Nov-10 21:00N 01°16' E 104°00'4 8.0
2017-Nov-10 20:30N 01°16' E 104°04'13 8.4
2017-Nov-10 18:56N 01°18' E 104°17'4 9.5
2017-Nov-10 18:30N 01°20' E 104°21'  
2017-Nov-08 03:36N 21°59' E 114°24'420.8
2017-Nov-08 03:24N 22°03' E 114°26'819.7
2017-Nov-08 03:01N 22°11' E 114°28'1019.7
2017-Nov-08 02:31N 22°21' E 114°27'815.7
2017-Nov-08 02:00N 22°28' E 114°26'612.2
2017-Nov-08 01:31N 22°33' E 114°22'510.8
2017-Nov-08 01:00N 22°34' E 114°16'0 0.6
2017-Nov-08 00:28N 22°34' E 114°16'0 0.0
2017-Nov-07 23:58N 22°34' E 114°16'0 0.0
2017-Nov-07 23:28N 22°34' E 114°16'0 0.0
2017-Nov-07 22:59N 22°34' E 114°16'0 0.0
2017-Nov-07 22:25N 22°34' E 114°16'0 0.0
2017-Nov-07 21:55N 22°34' E 114°16'0 0.0
2017-Nov-07 21:29N 22°34' E 114°16'0 0.0
2017-Nov-07 20:58N 22°34' E 114°16'0 0.0
2017-Nov-07 20:28N 22°34' E 114°16'0 0.0
2017-Nov-07 19:58N 22°34' E 114°16'0 0.0
2017-Nov-07 19:25N 22°34' E 114°16'0 0.0
2017-Nov-07 18:59N 22°34' E 114°16'0 0.0
2017-Nov-07 18:29N 22°34' E 114°16'0 0.0
2017-Nov-07 17:58N 22°34' E 114°16'0 0.0
2017-Nov-07 17:28N 22°34' E 114°16'0 0.0
2017-Nov-07 16:55N 22°34' E 114°16'0 0.0
2017-Nov-07 16:28N 22°34' E 114°16'0 0.0
2017-Nov-07 15:59N 22°34' E 114°16'0 0.0
2017-Nov-07 15:22N 22°34' E 114°16'0 0.0
2017-Nov-07 14:58N 22°34' E 114°16'0 0.0
2017-Nov-07 14:28N 22°34' E 114°16'0 0.0
2017-Nov-07 13:58N 22°34' E 114°16'0 0.0
2017-Nov-07 13:28N 22°34' E 114°16'0 0.0
2017-Nov-07 12:58N 22°34' E 114°16'0 0.0
2017-Nov-07 12:28N 22°34' E 114°16'0 0.0
2017-Nov-07 11:58N 22°34' E 114°16'0 0.0
2017-Nov-07 11:22N 22°34' E 114°16'0 0.0
2017-Nov-07 10:58N 22°34' E 114°16'0 0.1
2017-Nov-07 10:30N 22°34' E 114°16'2 3.0
2017-Nov-07 10:00N 22°34' E 114°17'510.9
2017-Nov-07 09:30N 22°32' E 114°23'611.9
2017-Nov-07 09:00N 22°28' E 114°28'4 7.1
2017-Nov-07 08:30N 22°25' E 114°30'1 1.3
2017-Nov-07 08:00N 22°25' E 114°30'2 3.3
2017-Nov-07 07:31N 22°23' E 114°31'4 8.0
2017-Nov-07 07:00N 22°21' E 114°34'5 9.9
2017-Nov-07 06:30N 22°19' E 114°39'510.0
2017-Nov-07 06:00N 22°18' E 114°45'510.0
2017-Nov-07 05:30N 22°17' E 114°50'5 9.5
2017-Nov-07 05:00N 22°16' E 114°55'4 8.5
2017-Nov-07 04:30N 22°13' E 114°59'5 9.4
2017-Nov-07 04:00N 22°13' E 115°04'5 9.7
2017-Nov-07 03:30N 22°13' E 115°09'5 9.6
2017-Nov-07 03:00N 22°13' E 115°14'4 8.8
2017-Nov-07 02:30N 22°13' E 115°19'4 8.9
2017-Nov-07 02:00N 22°13' E 115°24'5 9.3
2017-Nov-07 01:29N 22°14' E 115°29'611.6
2017-Nov-07 00:56N 22°14' E 115°36'511.7
2017-Nov-07 00:30N 22°14' E 115°41'611.5
2017-Nov-06 23:57N 22°14' E 115°48'  
2017-Nov-04 06:28N 30°33' E 122°16'816.4
2017-Nov-04 06:01N 30°35' E 122°07'4 0.3
2017-Nov-03 18:10N 30°37' E 122°04'0 0.0
2017-Nov-03 13:32N 30°37' E 122°04'  
Track history (hours):
 
Tides and Currents Weather Stations Pressure Air Temp Water Temp Dewpoint Dewpoint Depression Visibility Wind Speed Wind Dir Waves Ship Positions

YM Utopia

Last reported at 2017-Nov-11 22:15 UTC. Time now 2017-Nov-24 04:05 UTC.
Position N 01°13' E 103°33'.
Warning: this ship's position is 12 days out of date.

Length 333 m; draft 13.9 m.

Type: Ship (hazmat cat A). MMSI: 636013690.

Date/timePositionNaut miles runAvg speedWind from/ knotsBaromVisibWave heightAir tempDewpointWater temp
2017-Nov-11 22:15N 01°13' E 103°33'417.5
2017-Nov-11 22:01N 01°12' E 103°37'510.4
2017-Nov-11 21:30N 01°14' E 103°42'5 9.7
2017-Nov-11 21:01N 01°17' E 103°45'1 1.7
2017-Nov-11 20:30N 01°17' E 103°46'0 0.0
2017-Nov-11 19:57N 01°17' E 103°46'0 0.0
2017-Nov-11 19:27N 01°17' E 103°46'0 0.0
2017-Nov-11 18:57N 01°17' E 103°46'0 0.0
2017-Nov-11 18:30N 01°17' E 103°46'0 0.0
2017-Nov-11 17:57N 01°17' E 103°46'0 0.0
2017-Nov-11 17:30N 01°17' E 103°46'0 0.0
2017-Nov-11 17:00N 01°17' E 103°46'0 0.0
2017-Nov-11 16:30N 01°17' E 103°46'0 0.0
2017-Nov-11 16:00N 01°17' E 103°46'0 0.0
2017-Nov-11 15:30N 01°17' E 103°46'0 0.0
2017-Nov-11 14:57N 01°17' E 103°46'0 0.0
2017-Nov-11 14:30N 01°17' E 103°46'0 0.0
2017-Nov-11 14:00N 01°17' E 103°46'0 0.0
2017-Nov-11 13:30N 01°17' E 103°46'0 0.0
2017-Nov-11 13:01N 01°17' E 103°46'0 0.0
2017-Nov-11 12:30N 01°17' E 103°46'0 0.0
2017-Nov-11 12:01N 01°17' E 103°46'0 0.0
2017-Nov-11 11:30N 01°17' E 103°46'0 0.0
2017-Nov-11 10:57N 01°17' E 103°46'0 0.0
2017-Nov-11 10:30N 01°17' E 103°46'0 0.0
2017-Nov-11 09:57N 01°17' E 103°46'0 0.0
2017-Nov-11 09:30N 01°17' E 103°46'0 0.0
2017-Nov-11 08:57N 01°17' E 103°46'0 0.0
2017-Nov-11 08:27N 01°17' E 103°46'0 0.0
2017-Nov-11 07:54N 01°17' E 103°46'0 0.0
2017-Nov-11 07:30N 01°17' E 103°46'0 0.0
2017-Nov-11 07:00N 01°17' E 103°46'0 0.0
2017-Nov-11 06:30N 01°17' E 103°46'0 0.0
2017-Nov-11 06:00N 01°17' E 103°46'0 0.0
2017-Nov-11 05:27N 01°17' E 103°46'0 0.0
2017-Nov-11 05:00N 01°17' E 103°46'0 0.0
2017-Nov-11 04:30N 01°17' E 103°46'0 0.0
2017-Nov-11 04:00N 01°17' E 103°46'0 0.0
2017-Nov-11 03:30N 01°17' E 103°46'0 0.0
2017-Nov-11 03:00N 01°17' E 103°46'0 0.0
2017-Nov-11 02:30N 01°17' E 103°46'0 0.0
2017-Nov-11 01:57N 01°17' E 103°46'0 0.0
2017-Nov-11 01:27N 01°17' E 103°46'0 0.0
2017-Nov-11 01:00N 01°17' E 103°46'0 0.0
2017-Nov-11 00:30N 01°17' E 103°46'0 0.4
2017-Nov-11 00:00N 01°17' E 103°46'1 2.2
2017-Nov-10 23:30N 01°17' E 103°45'3 6.1
2017-Nov-10 23:00N 01°15' E 103°47'4 8.9
2017-Nov-10 22:30N 01°12' E 103°51'4 7.7
2017-Nov-10 22:00N 01°13' E 103°54'4 7.6
2017-Nov-10 21:30N 01°15' E 103°58'3 5.1
2017-Nov-10 21:00N 01°16' E 104°00'4 8.0
2017-Nov-10 20:30N 01°16' E 104°04'13 8.4
2017-Nov-10 18:56N 01°18' E 104°17'4 9.5
2017-Nov-10 18:30N 01°20' E 104°21'  
2017-Nov-08 03:36N 21°59' E 114°24'420.8
2017-Nov-08 03:24N 22°03' E 114°26'819.7
2017-Nov-08 03:01N 22°11' E 114°28'1019.7
2017-Nov-08 02:31N 22°21' E 114°27'815.7
2017-Nov-08 02:00N 22°28' E 114°26'612.2
2017-Nov-08 01:31N 22°33' E 114°22'510.8
2017-Nov-08 01:00N 22°34' E 114°16'0 0.6
2017-Nov-08 00:28N 22°34' E 114°16'0 0.0
2017-Nov-07 23:58N 22°34' E 114°16'0 0.0
2017-Nov-07 23:28N 22°34' E 114°16'0 0.0
2017-Nov-07 22:59N 22°34' E 114°16'0 0.0
2017-Nov-07 22:25N 22°34' E 114°16'0 0.0
2017-Nov-07 21:55N 22°34' E 114°16'0 0.0
2017-Nov-07 21:29N 22°34' E 114°16'0 0.0
2017-Nov-07 20:58N 22°34' E 114°16'0 0.0
2017-Nov-07 20:28N 22°34' E 114°16'0 0.0
2017-Nov-07 19:58N 22°34' E 114°16'0 0.0
2017-Nov-07 19:25N 22°34' E 114°16'0 0.0
2017-Nov-07 18:59N 22°34' E 114°16'0 0.0
2017-Nov-07 18:29N 22°34' E 114°16'0 0.0
2017-Nov-07 17:58N 22°34' E 114°16'0 0.0
2017-Nov-07 17:28N 22°34' E 114°16'0 0.0
2017-Nov-07 16:55N 22°34' E 114°16'0 0.0
2017-Nov-07 16:28N 22°34' E 114°16'0 0.0
2017-Nov-07 15:59N 22°34' E 114°16'0 0.0
2017-Nov-07 15:22N 22°34' E 114°16'0 0.0
2017-Nov-07 14:58N 22°34' E 114°16'0 0.0
2017-Nov-07 14:28N 22°34' E 114°16'0 0.0
2017-Nov-07 13:58N 22°34' E 114°16'0 0.0
2017-Nov-07 13:28N 22°34' E 114°16'0 0.0
2017-Nov-07 12:58N 22°34' E 114°16'0 0.0
2017-Nov-07 12:28N 22°34' E 114°16'0 0.0
2017-Nov-07 11:58N 22°34' E 114°16'0 0.0
2017-Nov-07 11:22N 22°34' E 114°16'0 0.0
2017-Nov-07 10:58N 22°34' E 114°16'0 0.1
2017-Nov-07 10:30N 22°34' E 114°16'2 3.0
2017-Nov-07 10:00N 22°34' E 114°17'510.9
2017-Nov-07 09:30N 22°32' E 114°23'611.9
2017-Nov-07 09:00N 22°28' E 114°28'4 7.1
2017-Nov-07 08:30N 22°25' E 114°30'1 1.3
2017-Nov-07 08:00N 22°25' E 114°30'2 3.3
2017-Nov-07 07:31N 22°23' E 114°31'4 8.0
2017-Nov-07 07:00N 22°21' E 114°34'5 9.9
2017-Nov-07 06:30N 22°19' E 114°39'510.0
2017-Nov-07 06:00N 22°18' E 114°45'510.0
2017-Nov-07 05:30N 22°17' E 114°50'5 9.5
2017-Nov-07 05:00N 22°16' E 114°55'4 8.5
2017-Nov-07 04:30N 22°13' E 114°59'5 9.4
2017-Nov-07 04:00N 22°13' E 115°04'5 9.7
2017-Nov-07 03:30N 22°13' E 115°09'5 9.6
2017-Nov-07 03:00N 22°13' E 115°14'4 8.8
2017-Nov-07 02:30N 22°13' E 115°19'4 8.9
2017-Nov-07 02:00N 22°13' E 115°24'5 9.3
2017-Nov-07 01:29N 22°14' E 115°29'611.6
2017-Nov-07 00:56N 22°14' E 115°36'511.7
2017-Nov-07 00:30N 22°14' E 115°41'611.5
2017-Nov-06 23:57N 22°14' E 115°48'  
2017-Nov-04 06:28N 30°33' E 122°16'816.4
2017-Nov-04 06:01N 30°35' E 122°07'4 0.3
2017-Nov-03 18:10N 30°37' E 122°04'0 0.0
2017-Nov-03 13:32N 30°37' E 122°04'  

Dump ship's entire track history